RAM72E GMMN-LEMD
Flight info
| Callsign | RAM72E |
|---|---|
| Flight time | 0h 51m |
| Altitude | 36000 |
| Route | TOLSI UG5 KORIS DCT SVL DCT HIJ DCT PARKA DCT SOTUK |
| Aircraft | B738/M-SDE2E3FGHIRWXY/LB1 |
Departure
| Time | 2026-05-04 15:36 |
|---|---|
| Airport | Mohammed V International Airport (GMMN) |
Arrival
| Time | 2026-05-04 16:27 |
|---|---|
| Airport | Adolfo Suárez Madrid–Barajas Airport (LEMD) |
| Time | Latitude | Longitude | Altitude | Speed | Heading |
|---|---|---|---|---|---|
| 2026-05-04 14:50 | 33.37167 | -7.58183 | 653 ft | 0 kts | 65° |
| 2026-05-04 15:22 | 33.37164 | -7.58190 | 652 ft | 4 kts | 67° |
| 2026-05-04 15:22 | 33.37158 | -7.58253 | 652 ft | 4 kts | 106° |
| 2026-05-04 15:23 | 33.37169 | -7.58281 | 653 ft | 4 kts | 131° |
| 2026-05-04 15:23 | 33.37188 | -7.58299 | 656 ft | 3 kts | 163° |
| 2026-05-04 15:23 | 33.37191 | -7.58300 | 654 ft | 0 kts | 165° |
| 2026-05-04 15:28 | 33.37094 | -7.58268 | 652 ft | 17 kts | 164° |
| 2026-05-04 15:28 | 33.36985 | -7.58232 | 652 ft | 15 kts | 169° |
| 2026-05-04 15:28 | 33.36898 | -7.58429 | 652 ft | 14 kts | 248° |
| 2026-05-04 15:29 | 33.36815 | -7.58452 | 653 ft | 13 kts | 162° |
| 2026-05-04 15:30 | 33.36408 | -7.58311 | 652 ft | 24 kts | 163° |
| 2026-05-04 15:30 | 33.35920 | -7.58144 | 651 ft | 23 kts | 164° |
| 2026-05-04 15:31 | 33.35627 | -7.58044 | 651 ft | 21 kts | 164° |
| 2026-05-04 15:31 | 33.35486 | -7.57996 | 652 ft | 21 kts | 164° |
| 2026-05-04 15:32 | 33.35237 | -7.58077 | 653 ft | 0 kts | 254° |
| 2026-05-04 15:33 | 33.35237 | -7.58078 | 653 ft | 1 kts | 254° |
| 2026-05-04 15:34 | 33.35268 | -7.58279 | 654 ft | 8 kts | 340° |
| 2026-05-04 15:34 | 33.35275 | -7.58281 | 653 ft | 0 kts | 345° |
| 2026-05-04 15:35 | 33.35321 | -7.58295 | 653 ft | 11 kts | 345° |
| 2026-05-04 15:35 | 33.35431 | -7.58332 | 648 ft | 22 kts | 343° |
| 2026-05-04 15:35 | 33.35807 | -7.58464 | 644 ft | 103 kts | 343° |
| 2026-05-04 15:36 | 33.37998 | -7.59254 | 1715 ft | 184 kts | 343° |
| 2026-05-04 15:36 | 33.39160 | -7.59747 | 3221 ft | 168 kts | 340° |
| 2026-05-04 15:36 | 33.40214 | -7.60206 | 4440 ft | 164 kts | 341° |
| 2026-05-04 15:37 | 33.41326 | -7.60672 | 4844 ft | 170 kts | 341° |
| 2026-05-04 15:37 | 33.42846 | -7.61359 | 5278 ft | 174 kts | 326° |
| 2026-05-04 15:37 | 33.43503 | -7.62692 | 5588 ft | 208 kts | 277° |
| 2026-05-04 15:37 | 33.43121 | -7.64465 | 5836 ft | 240 kts | 235° |
| 2026-05-04 15:38 | 33.41720 | -7.65605 | 6499 ft | 253 kts | 201° |
| 2026-05-04 15:38 | 33.40096 | -7.66398 | 7199 ft | 253 kts | 219° |
| 2026-05-04 15:38 | 33.39156 | -7.68087 | 8052 ft | 244 kts | 254° |
| 2026-05-04 15:38 | 33.38792 | -7.70080 | 8808 ft | 245 kts | 257° |
| 2026-05-04 15:39 | 33.37972 | -7.73691 | 10491 ft | 238 kts | 252° |
| 2026-05-04 15:39 | 33.36502 | -7.78587 | 11866 ft | 269 kts | 249° |
| 2026-05-04 15:39 | 33.34477 | -7.84041 | 14537 ft | 271 kts | 231° |
| 2026-05-04 15:40 | 33.33055 | -7.85686 | 14811 ft | 298 kts | 226° |
| 2026-05-04 15:40 | 33.31919 | -7.87839 | 15025 ft | 319 kts | 255° |
| 2026-05-04 15:40 | 33.31827 | -7.90516 | 15668 ft | 329 kts | 278° |
| 2026-05-04 15:40 | 33.32594 | -7.93103 | 16547 ft | 335 kts | 296° |
| 2026-05-04 15:41 | 33.34067 | -7.95294 | 17401 ft | 345 kts | 315° |
| 2026-05-04 15:41 | 33.36145 | -7.96816 | 18189 ft | 359 kts | 334° |
| 2026-05-04 15:41 | 33.38634 | -7.97442 | 18875 ft | 375 kts | 353° |
| 2026-05-04 15:41 | 33.41236 | -7.97063 | 19541 ft | 390 kts | 11° |
| 2026-05-04 15:42 | 33.43747 | -7.95741 | 20238 ft | 402 kts | 26° |
| 2026-05-04 15:42 | 33.46116 | -7.93897 | 20892 ft | 409 kts | 31° |
| 2026-05-04 15:42 | 33.51534 | -7.89133 | 22314 ft | 422 kts | 32° |
| 2026-05-04 15:42 | 33.61363 | -7.80943 | 24564 ft | 437 kts | 29° |
| 2026-05-04 15:43 | 33.71604 | -7.72852 | 26763 ft | 445 kts | 28° |
| 2026-05-04 15:43 | 33.77169 | -7.68368 | 27780 ft | 455 kts | 32° |
| 2026-05-04 15:43 | 33.80472 | -7.65207 | 28331 ft | 462 kts | 34° |
| 2026-05-04 15:43 | 33.90880 | -7.55932 | 30122 ft | 468 kts | 28° |
| 2026-05-04 15:44 | 34.01907 | -7.47432 | 31383 ft | 481 kts | 26° |
| 2026-05-04 15:44 | 34.13357 | -7.38551 | 32500 ft | 494 kts | 27° |
| 2026-05-04 15:44 | 34.24890 | -7.29427 | 34012 ft | 494 kts | 27° |
| 2026-05-04 15:44 | 34.31320 | -7.24341 | 34762 ft | 495 kts | 27° |
| 2026-05-04 15:45 | 34.34207 | -7.22060 | 35042 ft | 496 kts | 27° |
| 2026-05-04 15:45 | 34.37098 | -7.19774 | 35353 ft | 496 kts | 27° |
| 2026-05-04 15:45 | 34.39985 | -7.17489 | 35655 ft | 496 kts | 26° |
| 2026-05-04 15:45 | 34.42875 | -7.15199 | 35971 ft | 496 kts | 26° |
| 2026-05-04 15:46 | 34.45771 | -7.12902 | 36078 ft | 501 kts | 26° |
| 2026-05-04 15:46 | 34.55903 | -7.04849 | 36114 ft | 506 kts | 26° |
| 2026-05-04 15:47 | 34.61868 | -7.00254 | 36071 ft | 487 kts | 21° |
| 2026-05-04 15:47 | 34.77698 | -6.90714 | 36097 ft | 493 kts | 19° |
| 2026-05-04 15:48 | 34.85586 | -6.85900 | 36072 ft | 496 kts | 19° |
| 2026-05-04 15:48 | 35.16281 | -6.66889 | 36077 ft | 479 kts | 18° |
| 2026-05-04 15:49 | 35.34573 | -6.55511 | 36117 ft | 487 kts | 19° |
| 2026-05-04 15:49 | 35.44428 | -6.49347 | 36077 ft | 491 kts | 19° |
| 2026-05-04 15:50 | 35.66201 | -6.35116 | 36095 ft | 495 kts | 20° |
| 2026-05-04 15:50 | 35.81573 | -6.25048 | 36059 ft | 494 kts | 18° |
| 2026-05-04 15:51 | 35.84694 | -6.23405 | 36053 ft | 483 kts | 8° |
| 2026-05-04 15:51 | 35.87908 | -6.22367 | 36063 ft | 474 kts | 3° |
| 2026-05-04 15:51 | 36.11677 | -6.15583 | 36084 ft | 471 kts | 4° |
| 2026-05-04 15:52 | 36.36955 | -6.08079 | 36080 ft | 469 kts | 4° |
| 2026-05-04 15:52 | 36.62382 | -6.00507 | 36090 ft | 469 kts | 4° |
| 2026-05-04 15:53 | 36.87349 | -5.93018 | 36038 ft | 470 kts | 5° |
| 2026-05-04 15:53 | 37.10816 | -5.85933 | 36075 ft | 470 kts | 5° |
| 2026-05-04 15:54 | 37.20901 | -5.82873 | 36014 ft | 470 kts | 5° |
| 2026-05-04 15:54 | 37.41819 | -5.76485 | 36008 ft | 470 kts | 7° |
| 2026-05-04 15:55 | 37.51109 | -5.71345 | 35976 ft | 482 kts | 19° |
| 2026-05-04 15:55 | 37.75214 | -5.56548 | 35998 ft | 481 kts | 19° |
| 2026-05-04 15:56 | 37.99323 | -5.41831 | 35998 ft | 480 kts | 19° |
| 2026-05-04 15:56 | 38.23292 | -5.27074 | 35997 ft | 479 kts | 19° |
| 2026-05-04 15:57 | 38.45833 | -5.13097 | 35994 ft | 480 kts | 19° |
| 2026-05-04 15:57 | 38.48901 | -5.11543 | 35981 ft | 470 kts | 8° |
| 2026-05-04 15:57 | 38.52058 | -5.10669 | 35991 ft | 457 kts | 360° |
| 2026-05-04 15:58 | 38.55161 | -5.10361 | 36012 ft | 439 kts | 351° |
| 2026-05-04 15:58 | 38.58147 | -5.10611 | 35990 ft | 422 kts | 346° |
| 2026-05-04 15:58 | 38.61029 | -5.10936 | 35971 ft | 408 kts | 346° |
| 2026-05-04 15:58 | 38.65828 | -5.11466 | 35934 ft | 386 kts | 346° |
| 2026-05-04 15:59 | 38.68536 | -5.11753 | 35942 ft | 373 kts | 346° |
| 2026-05-04 15:59 | 38.71197 | -5.12032 | 35972 ft | 368 kts | 346° |
| 2026-05-04 15:59 | 38.74978 | -5.12441 | 36000 ft | 380 kts | 346° |
| 2026-05-04 15:59 | 38.78732 | -5.12841 | 36058 ft | 390 kts | 346° |
| 2026-05-04 16:00 | 38.84202 | -5.13395 | 35977 ft | 394 kts | 347° |
| 2026-05-04 16:00 | 38.96894 | -5.14505 | 35947 ft | 399 kts | 360° |
| 2026-05-04 16:01 | 38.99593 | -5.13431 | 35981 ft | 418 kts | 23° |
| 2026-05-04 16:01 | 39.01906 | -5.11110 | 35994 ft | 432 kts | 45° |
| 2026-05-04 16:01 | 39.07745 | -4.99076 | 35957 ft | 438 kts | 56° |
| 2026-05-04 16:02 | 39.14534 | -4.84762 | 35955 ft | 438 kts | 55° |
| 2026-05-04 16:02 | 39.20280 | -4.73190 | 35950 ft | 435 kts | 43° |
| 2026-05-04 16:03 | 39.22362 | -4.70399 | 35983 ft | 431 kts | 39° |
| 2026-05-04 16:03 | 39.38416 | -4.50009 | 35962 ft | 438 kts | 41° |
| 2026-05-04 16:04 | 39.52231 | -4.31950 | 35993 ft | 441 kts | 41° |
| 2026-05-04 16:04 | 39.68683 | -4.10347 | 35914 ft | 436 kts | 41° |
| 2026-05-04 16:05 | 39.81099 | -3.93945 | 35943 ft | 431 kts | 41° |
| 2026-05-04 16:06 | 40.00656 | -3.67919 | 35977 ft | 428 kts | 42° |
| 2026-05-04 16:07 | 40.19816 | -3.42531 | 35906 ft | 426 kts | 38° |
| 2026-05-04 16:07 | 40.27504 | -3.37884 | 34539 ft | 399 kts | 354° |
| 2026-05-04 16:08 | 40.31035 | -3.37731 | 34318 ft | 389 kts | 353° |
| 2026-05-04 16:08 | 40.36946 | -3.42303 | 33473 ft | 327 kts | 302° |
| 2026-05-04 16:09 | 40.40268 | -3.46445 | 32947 ft | 330 kts | 313° |
| 2026-05-04 16:09 | 40.45592 | -3.51832 | 32075 ft | 324 kts | 314° |
| 2026-05-04 16:10 | 40.57679 | -3.63929 | 30259 ft | 306 kts | 314° |
| 2026-05-04 16:11 | 40.61073 | -3.70678 | 29330 ft | 279 kts | 274° |
| 2026-05-04 16:11 | 40.61217 | -3.73319 | 29099 ft | 300 kts | 266° |
| 2026-05-04 16:12 | 40.58886 | -3.80900 | 28275 ft | 296 kts | 240° |
| 2026-05-04 16:12 | 40.55776 | -3.87722 | 27458 ft | 283 kts | 242° |
| 2026-05-04 16:13 | 40.53830 | -3.92148 | 26910 ft | 276 kts | 242° |
| 2026-05-04 16:13 | 40.51838 | -3.96390 | 26384 ft | 270 kts | 238° |
| 2026-05-04 16:14 | 40.49367 | -3.99980 | 25827 ft | 274 kts | 206° |
| 2026-05-04 16:14 | 40.45579 | -3.99110 | 25372 ft | 304 kts | 150° |
| 2026-05-04 16:15 | 40.28393 | -3.84520 | 22974 ft | 302 kts | 156° |
| 2026-05-04 16:16 | 40.20180 | -3.78501 | 21800 ft | 297 kts | 171° |
| 2026-05-04 16:16 | 40.14856 | -3.80390 | 20850 ft | 265 kts | 229° |
| 2026-05-04 16:17 | 40.13262 | -3.84539 | 20321 ft | 256 kts | 262° |
| 2026-05-04 16:18 | 40.10555 | -3.90011 | 19597 ft | 290 kts | 198° |
| 2026-05-04 16:18 | 40.08523 | -3.90446 | 19379 ft | 300 kts | 191° |
| 2026-05-04 16:19 | 39.93315 | -3.91973 | 17133 ft | 304 kts | 171° |
| 2026-05-04 16:19 | 39.90052 | -3.88710 | 16893 ft | 306 kts | 121° |
| 2026-05-04 16:20 | 39.90804 | -3.80960 | 16053 ft | 303 kts | 46° |
| 2026-05-04 16:20 | 39.97323 | -3.72362 | 14808 ft | 297 kts | 43° |
| 2026-05-04 16:21 | 40.10937 | -3.54145 | 12251 ft | 281 kts | 43° |
| 2026-05-04 16:22 | 40.17488 | -3.45373 | 10978 ft | 273 kts | 40° |
| 2026-05-04 16:22 | 40.22403 | -3.40136 | 10017 ft | 272 kts | 26° |
| 2026-05-04 16:23 | 40.28281 | -3.37985 | 9147 ft | 258 kts | 359° |
| 2026-05-04 16:24 | 40.34886 | -3.40935 | 7824 ft | 249 kts | 317° |
| 2026-05-04 16:25 | 40.37804 | -3.43939 | 6364 ft | 282 kts | 318° |
| 2026-05-04 16:26 | 40.43874 | -3.50090 | 3298 ft | 254 kts | 319° |
| 2026-05-04 16:26 | 40.47841 | -3.54119 | 1935 ft | 210 kts | 322° |
| 2026-05-04 16:27 | 40.49197 | -3.55550 | 1957 ft | 33 kts | 295° |
| 2026-05-04 16:28 | 40.49267 | -3.55772 | 1960 ft | 0 kts | 292° |
| 2026-05-04 16:31 | 40.49300 | -3.55939 | 1962 ft | 15 kts | 273° |
| 2026-05-04 16:32 | 40.49409 | -3.56872 | 1976 ft | 13 kts | 90° |